Time;durP1;ratioP1;P1;durP2;ratioP2;P2;SDS_P1;SDS_P2;PMS_P1;PMS_P2;Temp;Humidity;BMP_temperature;BMP_pressure;BME280_temperature;BME280_humidity;BME280_pressure;Samples;Min_cycle;Max_cycle;Signal;HPM_P1;HPM_P2
2021/12/19 00:00:17;;;;;;;35.37;18.00;;;;;;;;;;5056064;28;20401;-59
2021/12/19 00:03:18;;;;;;;42.30;18.17;;;;;;;;;;5056244;28;20561;-59
2021/12/19 00:10:58;;;;;;;25.77;15.10;;;;;;;;;;5056119;28;20474;-60
2021/12/19 00:13:25;;;;;;;31.00;16.10;;;;;;;;;;5055808;28;20406;-58
2021/12/19 00:15:52;;;;;;;29.97;15.77;;;;;;;;;;5055633;28;20410;-59
2021/12/19 00:18:18;;;;;;;38.73;15.87;;;;;;;;;;5055463;28;20394;-61
2021/12/19 00:20:44;;;;;;;35.70;17.67;;;;;;;;;;5054964;28;20717;-61
2021/12/19 00:23:11;;;;;;;36.13;17.17;;;;;;;;;;5055215;28;20450;-61
2021/12/19 00:25:37;;;;;;;28.20;14.50;;;;;;;;;;5055379;28;20430;-61
2021/12/19 00:28:03;;;;;;;29.27;15.53;;;;;;;;;;5055266;28;20825;-59
2021/12/19 00:30:29;;;;;;;36.03;18.07;;;;;;;;;;5055184;28;20974;-61
2021/12/19 00:32:55;;;;;;;30.60;16.30;;;;;;;;;;5055247;28;20402;-60
2021/12/19 00:35:22;;;;;;;38.70;16.00;;;;;;;;;;5055393;28;20406;-60
2021/12/19 00:37:48;;;;;;;36.93;18.00;;;;;;;;;;5055296;28;20904;-60
2021/12/19 00:40:15;;;;;;;33.43;16.37;;;;;;;;;;5055039;28;20402;-60
2021/12/19 00:42:42;;;;;;;39.70;15.67;;;;;;;;;;5054907;28;20813;-60
2021/12/19 00:45:42;;;;;;;36.23;19.17;;;;;;;;;;5054902;28;20406;-60
2021/12/19 00:48:03;;;;;;;34.17;16.13;;;;;;;;;;5052799;28;20468;-59
2021/12/19 00:50:30;;;;;;;32.47;16.60;;;;;;;;;;5055154;28;20418;-60
2021/12/19 00:52:56;;;;;;;35.40;18.33;;;;;;;;;;5055190;28;20758;-60
2021/12/19 00:55:23;;;;;;;31.70;16.80;;;;;;;;;;5054857;28;20447;-61
2021/12/19 00:57:50;;;;;;;37.40;18.40;;;;;;;;;;5054620;28;20780;-59
2021/12/19 01:00:17;;;;;;;37.70;18.30;;;;;;;;;;5054913;28;20433;-60
2021/12/19 01:02:43;;;;;;;43.23;19.10;;;;;;;;;;5054685;28;20457;-59
2021/12/19 01:05:10;;;;;;;34.63;16.73;;;;;;;;;;5054740;28;20469;-60
2021/12/19 01:07:37;;;;;;;39.40;16.90;;;;;;;;;;5054715;28;20949;-60
2021/12/19 01:10:07;;;;;;;36.17;17.07;;;;;;;;;;5054525;28;20406;-60
2021/12/19 01:12:36;;;;;;;34.63;16.07;;;;;;;;;;5054538;28;20934;-61
2021/12/19 01:15:02;;;;;;;35.50;17.33;;;;;;;;;;5054382;28;20423;-60
2021/12/19 01:17:28;;;;;;;36.70;16.50;;;;;;;;;;5054187;28;20479;-56
2021/12/19 01:19:55;;;;;;;41.63;16.87;;;;;;;;;;5054586;28;20403;-60
2021/12/19 01:22:21;;;;;;;36.60;16.20;;;;;;;;;;5054319;28;20504;-57
2021/12/19 01:24:47;;;;;;;38.67;17.90;;;;;;;;;;5054674;28;20400;-58
2021/12/19 01:27:13;;;;;;;41.03;16.93;;;;;;;;;;5054189;28;20445;-58
2021/12/19 01:29:39;;;;;;;31.30;15.90;;;;;;;;;;5055015;28;20426;-61
2021/12/19 01:32:05;;;;;;;30.30;15.13;;;;;;;;;;5053430;28;20751;-60
2021/12/19 01:34:31;;;;;;;32.87;17.00;;;;;;;;;;5054002;28;20894;-56
2021/12/19 01:36:57;;;;;;;37.40;15.53;;;;;;;;;;5053984;28;20482;-61
2021/12/19 01:39:23;;;;;;;31.87;16.40;;;;;;;;;;5054063;28;20497;-61
2021/12/19 01:41:50;;;;;;;40.00;16.07;;;;;;;;;;5054199;28;20484;-59
2021/12/19 01:44:16;;;;;;;37.17;18.27;;;;;;;;;;5054234;28;20402;-60
2021/12/19 01:46:44;;;;;;;38.57;16.90;;;;;;;;;;5053821;28;20418;-61
2021/12/19 01:49:11;;;;;;;31.37;15.20;;;;;;;;;;5053722;28;20899;-61
2021/12/19 01:51:37;;;;;;;39.17;17.80;;;;;;;;;;5053819;28;20775;-61
2021/12/19 01:54:03;;;;;;;37.37;17.30;;;;;;;;;;5053538;28;20489;-60
2021/12/19 01:56:30;;;;;;;35.20;16.87;;;;;;;;;;5053564;28;20775;-61
2021/12/19 01:58:56;;;;;;;41.13;18.17;;;;;;;;;;5053408;28;20494;-61
2021/12/19 02:01:22;;;;;;;33.07;16.60;;;;;;;;;;5053275;28;20437;-61
2021/12/19 02:03:48;;;;;;;30.30;15.70;;;;;;;;;;5053690;28;20505;-59
2021/12/19 02:06:14;;;;;;;35.30;18.40;;;;;;;;;;5053259;28;20793;-60
2021/12/19 02:08:41;;;;;;;33.20;16.00;;;;;;;;;;5053224;28;20391;-60
2021/12/19 02:11:07;;;;;;;36.23;17.73;;;;;;;;;;5053304;28;20402;-60
2021/12/19 02:13:33;;;;;;;33.70;17.13;;;;;;;;;;5053040;28;20890;-60
2021/12/19 02:16:00;;;;;;;30.67;16.23;;;;;;;;;;5052032;28;20405;-60
2021/12/19 02:18:26;;;;;;;35.67;16.30;;;;;;;;;;5053566;28;20755;-61
2021/12/19 02:20:53;;;;;;;33.00;16.80;;;;;;;;;;5053692;28;20497;-61
2021/12/19 02:23:20;;;;;;;36.20;16.90;;;;;;;;;;5052930;28;20506;-61
2021/12/19 02:25:46;;;;;;;33.50;14.87;;;;;;;;;;5052930;28;20402;-62
2021/12/19 02:28:12;;;;;;;30.27;15.13;;;;;;;;;;5053287;28;20729;-60
2021/12/19 02:30:39;;;;;;;35.60;16.80;;;;;;;;;;5052856;28;20405;-61
2021/12/19 02:33:12;;;;;;;37.53;18.07;;;;;;;;;;5053034;28;20410;-61
2021/12/19 02:35:39;;;;;;;38.30;17.13;;;;;;;;;;5053178;28;20460;-61
2021/12/19 02:48:10;;;;;;;34.60;17.00;;;;;;;;;;5053378;28;20402;-60
2021/12/19 02:48:50;;;;;;;31.60;17.87;;;;;;;;;;5052869;28;20906;-60
2021/12/19 02:51:16;;;;;;;34.03;17.63;;;;;;;;;;5052867;28;20934;-61
2021/12/19 02:53:43;;;;;;;32.20;16.20;;;;;;;;;;5052700;28;20491;-61
2021/12/19 02:56:10;;;;;;;37.57;17.80;;;;;;;;;;5052701;28;20470;-60
2021/12/19 02:58:37;;;;;;;34.80;16.83;;;;;;;;;;5050871;28;20409;-61
2021/12/19 03:01:05;;;;;;;37.20;14.70;;;;;;;;;;5044993;28;20774;-60
2021/12/19 03:03:31;;;;;;;39.03;18.50;;;;;;;;;;5052545;28;20934;-60
2021/12/19 03:05:57;;;;;;;38.90;17.60;;;;;;;;;;5052757;28;20781;-60
2021/12/19 03:08:24;;;;;;;32.63;15.73;;;;;;;;;;5052869;28;20452;-61
2021/12/19 03:18:48;;;;;;;34.73;17.47;;;;;;;;;;5053222;28;20389;-60
2021/12/19 03:21:16;;;;;;;30.67;15.83;;;;;;;;;;5052951;28;20402;-61
2021/12/19 03:23:42;;;;;;;35.43;16.10;;;;;;;;;;5051676;28;20414;-60
2021/12/19 03:26:09;;;;;;;38.10;17.83;;;;;;;;;;5052286;28;20437;-61
2021/12/19 03:28:35;;;;;;;37.77;16.07;;;;;;;;;;5052690;28;20488;-60
2021/12/19 03:31:02;;;;;;;34.77;16.20;;;;;;;;;;5052453;28;20453;-61
2021/12/19 03:33:28;;;;;;;37.37;17.10;;;;;;;;;;5052538;28;20393;-60
2021/12/19 03:35:55;;;;;;;40.47;17.73;;;;;;;;;;5052491;28;20394;-58
2021/12/19 03:38:21;;;;;;;37.20;18.20;;;;;;;;;;5052492;28;20401;-60
2021/12/19 03:41:07;;;;;;;35.80;17.90;;;;;;;;;;5052327;28;20781;-62
2021/12/19 03:43:34;;;;;;;39.77;19.70;;;;;;;;;;5052710;28;20469;-60
2021/12/19 03:46:00;;;;;;;40.43;18.67;;;;;;;;;;5051300;28;20486;-59
2021/12/19 03:48:26;;;;;;;39.93;18.10;;;;;;;;;;5052324;28;20439;-60
2021/12/19 03:50:52;;;;;;;45.43;19.60;;;;;;;;;;5052373;28;20405;-61
2021/12/19 03:53:21;;;;;;;39.63;17.77;;;;;;;;;;5053059;28;20417;-60
2021/12/19 03:55:48;;;;;;;39.33;18.70;;;;;;;;;;5054115;28;20402;-61
2021/12/19 03:58:14;;;;;;;43.30;18.57;;;;;;;;;;5056293;28;20420;-60
2021/12/19 04:00:42;;;;;;;40.93;16.93;;;;;;;;;;5056260;28;20838;-61
2021/12/19 04:03:09;;;;;;;46.50;20.37;;;;;;;;;;5055907;28;20441;-61
2021/12/19 04:05:38;;;;;;;39.83;17.23;;;;;;;;;;5056014;28;20452;-61
2021/12/19 04:08:04;;;;;;;51.13;18.80;;;;;;;;;;5056253;28;20509;-61
2021/12/19 04:10:30;;;;;;;45.50;18.43;;;;;;;;;;5056036;28;20425;-61
2021/12/19 04:12:57;;;;;;;46.33;19.43;;;;;;;;;;5055777;28;20402;-61
2021/12/19 04:15:23;;;;;;;47.83;19.10;;;;;;;;;;5056021;28;20802;-62
2021/12/19 04:17:50;;;;;;;43.43;17.80;;;;;;;;;;5055883;28;20422;-62
2021/12/19 04:20:18;;;;;;;38.57;17.77;;;;;;;;;;5056113;28;20404;-62
2021/12/19 04:22:44;;;;;;;36.30;18.20;;;;;;;;;;5055497;28;20507;-62
2021/12/19 04:25:10;;;;;;;39.77;17.53;;;;;;;;;;5055628;28;20467;-62
2021/12/19 04:27:37;;;;;;;41.27;18.87;;;;;;;;;;5055436;28;20434;-62
2021/12/19 04:30:05;;;;;;;36.80;16.20;;;;;;;;;;5051393;28;20911;-61
2021/12/19 04:32:36;;;;;;;33.33;16.83;;;;;;;;;;5046581;28;20898;-61
2021/12/19 04:35:02;;;;;;;40.53;19.53;;;;;;;;;;5055237;28;20382;-62
2021/12/19 04:40:27;;;;;;;38.17;17.97;;;;;;;;;;5035475;28;20416;-61
2021/12/19 04:51:48;;;;;;;45.43;17.30;;;;;;;;;;5035353;28;21017;-61
2021/12/19 04:54:04;;;;;;;41.27;19.23;;;;;;;;;;5034583;28;20422;-61
2021/12/19 05:15:50;;;;;;;38.77;18.80;;;;;;;;;;5022194;28;20518;-61
2021/12/19 05:18:17;;;;;;;38.07;17.63;;;;;;;;;;5034602;28;20407;-61
2021/12/19 05:20:52;;;;;;;39.00;18.17;;;;;;;;;;5034494;28;20906;-61
2021/12/19 05:23:33;;;;;;;35.93;17.43;;;;;;;;;;5034617;28;20454;-61
2021/12/19 05:26:00;;;;;;;41.50;18.80;;;;;;;;;;5034601;28;20443;-61
2021/12/19 05:28:26;;;;;;;35.60;17.80;;;;;;;;;;5035078;28;20760;-61
2021/12/19 05:30:52;;;;;;;42.27;18.53;;;;;;;;;;5040958;28;20548;-60
2021/12/19 05:33:19;;;;;;;33.90;16.37;;;;;;;;;;5053974;28;20479;-61
2021/12/19 05:44:12;;;;;;;32.13;16.53;;;;;;;;;;5054229;28;20524;-61
2021/12/19 05:46:44;;;;;;;31.90;17.23;;;;;;;;;;5053925;28;20983;-61
2021/12/19 05:49:10;;;;;;;33.90;17.77;;;;;;;;;;5054120;28;20406;-61
2021/12/19 05:51:37;;;;;;;34.73;17.00;;;;;;;;;;5054098;28;20410;-61
2021/12/19 05:54:03;;;;;;;27.93;15.80;;;;;;;;;;5053750;28;20410;-60
2021/12/19 05:56:29;;;;;;;30.63;16.17;;;;;;;;;;5053686;28;20635;-61
2021/12/19 05:58:55;;;;;;;34.03;16.37;;;;;;;;;;5053907;28;20409;-61
2021/12/19 06:01:21;;;;;;;33.57;18.07;;;;;;;;;;5053878;28;20443;-61
2021/12/19 06:03:48;;;;;;;30.53;16.00;;;;;;;;;;5053822;28;20410;-61
2021/12/19 06:06:15;;;;;;;36.40;17.67;;;;;;;;;;5053407;28;20457;-61
2021/12/19 06:08:41;;;;;;;27.13;15.83;;;;;;;;;;5053704;28;20473;-61
2021/12/19 06:11:07;;;;;;;27.50;15.27;;;;;;;;;;5053415;28;20917;-60
2021/12/19 06:13:33;;;;;;;27.10;15.27;;;;;;;;;;5053392;28;20401;-57
2021/12/19 06:16:00;;;;;;;30.70;16.93;;;;;;;;;;5053312;28;20485;-61
2021/12/19 06:18:27;;;;;;;37.70;18.20;;;;;;;;;;5053125;28;20404;-59
2021/12/19 06:20:53;;;;;;;37.73;17.23;;;;;;;;;;5053551;28;20783;-60
2021/12/19 06:23:19;;;;;;;35.90;18.17;;;;;;;;;;5054180;28;20469;-61
2021/12/19 06:25:46;;;;;;;36.67;18.50;;;;;;;;;;5052926;28;20398;-63
2021/12/19 06:28:16;;;;;;;38.53;18.90;;;;;;;;;;5053493;28;20485;-61
2021/12/19 06:30:42;;;;;;;36.13;18.57;;;;;;;;;;5053079;28;20955;-61
2021/12/19 06:33:08;;;;;;;40.17;18.17;;;;;;;;;;5053683;28;20410;-60
2021/12/19 06:35:34;;;;;;;27.90;15.20;;;;;;;;;;5053620;28;20433;-61
2021/12/19 06:38:00;;;;;;;31.30;16.63;;;;;;;;;;5053043;28;20422;-60
2021/12/19 06:40:26;;;;;;;30.87;16.23;;;;;;;;;;5053552;28;20754;-61
2021/12/19 06:42:52;;;;;;;30.17;15.17;;;;;;;;;;5051750;28;20584;-58
2021/12/19 06:45:19;;;;;;;25.30;14.57;;;;;;;;;;5052974;28;20394;-61
2021/12/19 06:47:45;;;;;;;25.03;15.10;;;;;;;;;;5052809;28;20454;-60
2021/12/19 06:50:12;;;;;;;27.57;16.07;;;;;;;;;;5052927;28;20401;-61
2021/12/19 06:52:39;;;;;;;27.93;16.20;;;;;;;;;;5052863;28;20984;-60
2021/12/19 06:55:05;;;;;;;28.53;15.13;;;;;;;;;;5053131;28;20440;-61
2021/12/19 06:57:31;;;;;;;29.87;15.40;;;;;;;;;;5053057;28;20468;-61
2021/12/19 06:59:57;;;;;;;28.53;16.00;;;;;;;;;;5053041;28;20402;-61
2021/12/19 07:02:24;;;;;;;22.90;13.63;;;;;;;;;;5053116;28;20515;-61
2021/12/19 07:04:50;;;;;;;24.83;13.80;;;;;;;;;;5053077;28;20420;-61
2021/12/19 07:07:16;;;;;;;28.53;14.00;;;;;;;;;;5052619;28;20426;-61
2021/12/19 07:09:42;;;;;;;26.33;15.00;;;;;;;;;;5052856;28;20409;-60
2021/12/19 07:12:09;;;;;;;23.70;14.67;;;;;;;;;;5052870;28;20471;-61
2021/12/19 07:14:35;;;;;;;20.10;12.83;;;;;;;;;;5052953;28;20770;-59
2021/12/19 07:17:01;;;;;;;22.60;12.50;;;;;;;;;;5052676;28;20501;-61
2021/12/19 07:19:28;;;;;;;22.53;12.27;;;;;;;;;;5052974;28;20410;-61
2021/12/19 07:21:54;;;;;;;21.00;13.50;;;;;;;;;;5052647;28;20453;-61
2021/12/19 07:24:20;;;;;;;24.47;14.57;;;;;;;;;;5052706;28;20481;-61
2021/12/19 07:26:46;;;;;;;22.83;13.33;;;;;;;;;;5052434;28;20437;-61
2021/12/19 07:29:12;;;;;;;24.03;15.73;;;;;;;;;;5052731;28;20766;-61
2021/12/19 07:31:38;;;;;;;24.30;14.20;;;;;;;;;;5055583;28;20405;-61
2021/12/19 07:34:05;;;;;;;22.17;14.60;;;;;;;;;;5056594;28;20467;-61
2021/12/19 07:36:39;;;;;;;24.77;14.33;;;;;;;;;;5056227;28;20426;-60
2021/12/19 07:39:10;;;;;;;23.67;13.90;;;;;;;;;;5056484;28;20432;-61
2021/12/19 07:41:36;;;;;;;26.67;14.90;;;;;;;;;;5056444;28;20391;-61
2021/12/19 07:44:02;;;;;;;23.30;14.27;;;;;;;;;;5056161;28;20481;-61
2021/12/19 07:46:28;;;;;;;23.90;13.60;;;;;;;;;;5056250;28;20840;-61
2021/12/19 07:48:54;;;;;;;19.73;12.93;;;;;;;;;;5056234;28;20874;-60
2021/12/19 07:51:20;;;;;;;21.13;12.50;;;;;;;;;;5056370;28;20787;-61
2021/12/19 07:53:46;;;;;;;21.13;13.50;;;;;;;;;;5056304;28;20440;-61
2021/12/19 07:56:13;;;;;;;22.87;13.93;;;;;;;;;;5056498;28;20418;-60
2021/12/19 07:58:39;;;;;;;21.77;13.47;;;;;;;;;;5056666;28;20401;-59
2021/12/19 08:01:05;;;;;;;22.07;13.40;;;;;;;;;;5055998;28;20402;-61
2021/12/19 08:03:31;;;;;;;24.17;14.53;;;;;;;;;;5056182;28;20453;-60
2021/12/19 08:05:57;;;;;;;21.23;14.83;;;;;;;;;;5055850;28;20409;-61
2021/12/19 08:08:27;;;;;;;24.53;15.53;;;;;;;;;;5055972;28;20398;-61
2021/12/19 08:13:38;;;;;;;24.50;14.43;;;;;;;;;;5056124;28;20739;-60
2021/12/19 08:16:05;;;;;;;24.40;14.53;;;;;;;;;;5055568;28;20451;-61
2021/12/19 08:18:31;;;;;;;23.07;13.60;;;;;;;;;;5055713;28;20524;-61
2021/12/19 08:20:57;;;;;;;26.47;15.57;;;;;;;;;;5055651;28;20485;-61
2021/12/19 08:23:23;;;;;;;19.37;13.97;;;;;;;;;;5055263;28;20484;-61
2021/12/19 08:25:49;;;;;;;23.20;15.20;;;;;;;;;;5055529;28;20409;-61
2021/12/19 08:28:15;;;;;;;19.90;14.47;;;;;;;;;;5055669;28;20747;-60
2021/12/19 08:30:41;;;;;;;21.60;13.57;;;;;;;;;;5055212;28;20902;-61
2021/12/19 08:33:07;;;;;;;23.33;14.23;;;;;;;;;;5055540;28;20452;-61
2021/12/19 08:35:33;;;;;;;21.83;13.40;;;;;;;;;;5055142;28;20406;-61
2021/12/19 08:37:59;;;;;;;18.97;13.07;;;;;;;;;;5055016;28;20421;-61
2021/12/19 08:40:27;;;;;;;26.13;14.00;;;;;;;;;;5055215;28;20410;-56
2021/12/19 08:42:53;;;;;;;23.10;12.33;;;;;;;;;;5053568;28;20527;-59
2021/12/19 08:45:20;;;;;;;19.17;12.07;;;;;;;;;;5053737;28;20783;-67
2021/12/19 08:47:46;;;;;;;21.97;12.93;;;;;;;;;;5054325;28;20475;-62
2021/12/19 08:50:15;;;;;;;20.70;13.77;;;;;;;;;;5054400;28;20441;-60
2021/12/19 08:52:42;;;;;;;20.00;13.40;;;;;;;;;;5054875;28;20418;-62
2021/12/19 08:55:09;;;;;;;18.03;13.43;;;;;;;;;;5054367;28;20429;-60
2021/12/19 08:57:35;;;;;;;20.90;13.93;;;;;;;;;;5054323;28;20517;-61
2021/12/19 09:00:01;;;;;;;22.17;13.80;;;;;;;;;;5054383;28;20933;-62
2021/12/19 09:02:27;;;;;;;18.83;12.60;;;;;;;;;;5055254;28;20477;-60
2021/12/19 09:04:53;;;;;;;19.40;12.63;;;;;;;;;;5055088;28;20778;-59
2021/12/19 09:07:19;;;;;;;21.60;14.30;;;;;;;;;;5053408;28;20523;-66
2021/12/19 09:09:48;;;;;;;16.47;12.20;;;;;;;;;;5053004;28;20413;-61
2021/12/19 09:12:14;;;;;;;16.87;12.40;;;;;;;;;;5054914;28;20453;-63
2021/12/19 09:14:40;;;;;;;20.70;14.10;;;;;;;;;;5055497;28;20964;-62
2021/12/19 09:17:06;;;;;;;20.23;12.73;;;;;;;;;;5054579;28;20430;-62
2021/12/19 09:19:32;;;;;;;22.30;13.87;;;;;;;;;;5054504;28;20449;-63
2021/12/19 09:21:58;;;;;;;19.17;12.00;;;;;;;;;;5054394;28;20454;-62
2021/12/19 09:24:24;;;;;;;24.53;14.33;;;;;;;;;;5054743;28;20406;-62
2021/12/19 09:26:50;;;;;;;18.70;12.50;;;;;;;;;;5054166;28;20445;-62
2021/12/19 09:29:16;;;;;;;22.67;13.77;;;;;;;;;;5054290;28;20413;-61
2021/12/19 09:31:42;;;;;;;21.93;13.17;;;;;;;;;;5054348;28;20398;-63
2021/12/19 09:34:08;;;;;;;20.60;12.73;;;;;;;;;;5054183;28;20485;-62
2021/12/19 09:36:35;;;;;;;20.37;13.60;;;;;;;;;;5054282;28;20441;-62
2021/12/19 09:39:02;;;;;;;22.23;13.50;;;;;;;;;;5054095;28;20401;-63
2021/12/19 09:41:31;;;;;;;22.30;13.60;;;;;;;;;;5054053;28;20405;-62
2021/12/19 09:44:05;;;;;;;21.10;12.67;;;;;;;;;;5053974;28;20443;-62
2021/12/19 09:46:32;;;;;;;20.63;13.27;;;;;;;;;;5053991;28;20485;-62
2021/12/19 09:48:58;;;;;;;19.83;14.63;;;;;;;;;;5054183;28;20878;-62
2021/12/19 09:51:24;;;;;;;21.40;13.23;;;;;;;;;;5054193;28;20873;-62
2021/12/19 09:53:50;;;;;;;23.47;14.70;;;;;;;;;;5053039;28;20390;-62
2021/12/19 09:56:17;;;;;;;22.67;14.33;;;;;;;;;;5053625;28;20982;-61
2021/12/19 09:58:43;;;;;;;22.57;13.40;;;;;;;;;;5053845;28;20398;-62
2021/12/19 10:01:11;;;;;;;19.17;12.83;;;;;;;;;;5053695;28;20406;-62
2021/12/19 10:03:38;;;;;;;19.17;12.67;;;;;;;;;;5053528;28;20481;-61
2021/12/19 10:06:13;;;;;;;19.33;12.87;;;;;;;;;;5053685;28;20434;-62
2021/12/19 10:08:40;;;;;;;22.47;11.87;;;;;;;;;;5053801;28;20760;-61
2021/12/19 10:11:13;;;;;;;15.83;10.63;;;;;;;;;;5053495;28;20407;-61
2021/12/19 10:13:40;;;;;;;19.83;13.10;;;;;;;;;;5053732;28;20391;-61
2021/12/19 10:16:25;;;;;;;21.90;14.00;;;;;;;;;;5053412;28;20959;-60
2021/12/19 10:18:55;;;;;;;21.17;13.70;;;;;;;;;;5053353;28;20405;-60
2021/12/19 10:21:22;;;;;;;20.10;13.27;;;;;;;;;;5053462;28;20410;-61
2021/12/19 10:23:48;;;;;;;19.83;13.57;;;;;;;;;;5053258;28;20449;-61
2021/12/19 10:26:15;;;;;;;25.60;13.90;;;;;;;;;;5053171;28;20495;-61
2021/12/19 10:28:54;;;;;;;22.43;13.03;;;;;;;;;;5053494;28;20950;-61
2021/12/19 10:31:21;;;;;;;20.70;13.10;;;;;;;;;;5053377;28;20771;-61
2021/12/19 10:33:48;;;;;;;20.70;12.67;;;;;;;;;;5053354;28;20486;-61
2021/12/19 10:36:14;;;;;;;19.67;13.60;;;;;;;;;;5052922;28;20433;-61
2021/12/19 10:38:45;;;;;;;20.10;13.70;;;;;;;;;;5053181;28;20406;-60
2021/12/19 10:41:13;;;;;;;24.33;13.87;;;;;;;;;;5053139;28;20406;-61
2021/12/19 10:46:28;;;;;;;20.47;12.67;;;;;;;;;;5057025;28;20418;-61
2021/12/19 10:48:54;;;;;;;20.90;12.70;;;;;;;;;;5058577;28;20455;-61
2021/12/19 10:51:20;;;;;;;22.67;13.90;;;;;;;;;;5058232;28;20406;-61
2021/12/19 10:53:46;;;;;;;17.17;12.60;;;;;;;;;;5059426;28;20433;-61
2021/12/19 10:56:17;;;;;;;21.97;14.13;;;;;;;;;;5059349;28;20918;-61
2021/12/19 10:58:53;;;;;;;19.63;12.67;;;;;;;;;;5058531;28;20414;-62
2021/12/19 11:01:19;;;;;;;15.33;10.40;;;;;;;;;;5058300;28;20440;-62
2021/12/19 11:03:47;;;;;;;15.33;10.97;;;;;;;;;;5058778;28;20453;-62
2021/12/19 11:06:18;;;;;;;16.90;11.50;;;;;;;;;;5065233;28;20422;-62
2021/12/19 11:08:45;;;;;;;18.70;11.10;;;;;;;;;;5065424;28;20402;-62
2021/12/19 11:11:11;;;;;;;16.20;11.13;;;;;;;;;;5065709;28;20458;-62
2021/12/19 11:13:38;;;;;;;17.20;10.60;;;;;;;;;;5065387;28;20405;-62
2021/12/19 11:16:04;;;;;;;14.23;10.10;;;;;;;;;;5064961;28;20968;-62
2021/12/19 11:18:30;;;;;;;18.80;11.40;;;;;;;;;;5066017;28;20401;-62
2021/12/19 11:20:56;;;;;;;16.30;10.30;;;;;;;;;;5065159;28;20880;-62
2021/12/19 11:23:23;;;;;;;17.00;10.53;;;;;;;;;;5062230;28;20548;-62
2021/12/19 11:25:49;;;;;;;14.87;10.07;;;;;;;;;;5059138;28;20421;-61
2021/12/19 11:28:16;;;;;;;12.90;9.00;;;;;;;;;;5082449;22;20489;-69
2021/12/19 11:30:42;;;;;;;16.90;10.43;;;;;;;;;;5056728;28;20427;-70
2021/12/19 11:33:30;;;;;;;14.03;10.27;;;;;;;;;;5059133;28;20749;-69
2021/12/19 11:35:56;;;;;;;14.03;10.53;;;;;;;;;;5059282;28;20376;-69
2021/12/19 11:38:23;;;;;;;13.77;10.10;;;;;;;;;;5059508;28;20429;-69
2021/12/19 11:40:51;;;;;;;15.50;10.07;;;;;;;;;;5059389;28;20397;-69
2021/12/19 11:43:18;;;;;;;14.47;10.30;;;;;;;;;;5059443;28;20445;-69
2021/12/19 11:45:57;;;;;;;14.47;10.07;;;;;;;;;;5059254;28;20397;-69
2021/12/19 11:48:30;;;;;;;13.50;9.20;;;;;;;;;;5059343;28;20414;-69
2021/12/19 11:50:58;;;;;;;12.47;8.80;;;;;;;;;;5059316;28;20786;-69
2021/12/19 11:53:29;;;;;;;12.53;8.67;;;;;;;;;;5059058;28;20413;-69
2021/12/19 11:56:06;;;;;;;14.47;9.60;;;;;;;;;;5059409;28;20401;-69
2021/12/19 11:58:38;;;;;;;13.73;9.63;;;;;;;;;;5058908;28;20428;-69
2021/12/19 12:01:04;;;;;;;13.20;8.87;;;;;;;;;;5059114;28;20390;-69
2021/12/19 12:03:42;;;;;;;13.80;9.73;;;;;;;;;;5058899;28;20448;-69
2021/12/19 12:06:15;;;;;;;11.57;8.93;;;;;;;;;;5059122;28;20492;-69
2021/12/19 12:09:02;;;;;;;14.23;9.70;;;;;;;;;;5057726;28;20433;-69
2021/12/19 12:11:29;;;;;;;16.50;10.83;;;;;;;;;;5057563;28;20409;-69
2021/12/19 12:13:55;;;;;;;11.57;8.70;;;;;;;;;;5057645;28;20418;-69
2021/12/19 12:16:29;;;;;;;15.50;10.07;;;;;;;;;;5056546;28;20979;-69
2021/12/19 12:18:56;;;;;;;18.27;12.40;;;;;;;;;;5054492;28;20437;-69
2021/12/19 12:21:25;;;;;;;12.80;9.53;;;;;;;;;;5055867;28;20405;-69
2021/12/19 12:24:08;;;;;;;17.30;10.57;;;;;;;;;;5055809;28;20453;-69
2021/12/19 12:26:42;;;;;;;14.57;10.43;;;;;;;;;;5055413;28;20386;-69
2021/12/19 12:29:08;;;;;;;13.27;9.53;;;;;;;;;;5054400;28;20402;-70
2021/12/19 12:31:35;;;;;;;15.20;10.47;;;;;;;;;;5055763;28;20866;-69
2021/12/19 12:34:01;;;;;;;13.27;9.20;;;;;;;;;;5055403;28;20485;-69
2021/12/19 12:36:27;;;;;;;13.03;9.93;;;;;;;;;;5055451;28;20390;-69
2021/12/19 12:38:54;;;;;;;15.20;9.40;;;;;;;;;;5054208;28;20914;-70
2021/12/19 12:41:35;;;;;;;13.50;9.60;;;;;;;;;;5054220;28;20402;-70
2021/12/19 12:44:05;;;;;;;13.77;9.20;;;;;;;;;;5055335;28;20477;-69
2021/12/19 12:46:32;;;;;;;13.20;9.40;;;;;;;;;;5055195;28;20532;-70
2021/12/19 12:48:58;;;;;;;15.53;10.93;;;;;;;;;;5055282;28;20393;-70
2021/12/19 12:51:24;;;;;;;14.43;9.10;;;;;;;;;;5055465;28;20749;-70
2021/12/19 12:53:53;;;;;;;13.77;10.10;;;;;;;;;;5055130;28;20394;-70
2021/12/19 12:56:21;;;;;;;12.67;9.20;;;;;;;;;;5055249;28;20959;-70
2021/12/19 12:58:49;;;;;;;12.37;8.80;;;;;;;;;;5054832;28;20491;-69
2021/12/19 13:01:22;;;;;;;11.70;8.87;;;;;;;;;;5054927;28;20401;-70
2021/12/19 13:03:57;;;;;;;11.67;7.50;;;;;;;;;;5054793;28;20437;-69
2021/12/19 13:06:43;;;;;;;13.57;9.17;;;;;;;;;;5054820;28;20931;-70
2021/12/19 13:09:18;;;;;;;13.07;8.80;;;;;;;;;;5055143;28;20405;-70
2021/12/19 13:11:46;;;;;;;11.00;8.07;;;;;;;;;;5055249;28;20426;-70
2021/12/19 13:14:20;;;;;;;13.70;8.73;;;;;;;;;;5054819;28;20403;-70
2021/12/19 13:16:47;;;;;;;16.70;9.97;;;;;;;;;;5054914;28;20434;-70
2021/12/19 13:19:32;;;;;;;15.80;10.40;;;;;;;;;;5054815;28;20402;-70
2021/12/19 13:21:58;;;;;;;14.80;10.33;;;;;;;;;;5054505;28;20453;-70
2021/12/19 13:24:24;;;;;;;13.27;9.53;;;;;;;;;;5054775;28;20405;-70
2021/12/19 13:27:11;;;;;;;19.40;12.00;;;;;;;;;;5054196;28;20441;-70
2021/12/19 13:29:37;;;;;;;18.50;10.20;;;;;;;;;;5053977;28;20421;-70
2021/12/19 13:32:16;;;;;;;16.67;10.87;;;;;;;;;;5054445;28;20913;-69
2021/12/19 13:34:43;;;;;;;17.50;12.47;;;;;;;;;;5054356;28;20960;-70
2021/12/19 13:37:09;;;;;;;16.27;10.90;;;;;;;;;;5054241;28;20993;-70
2021/12/19 13:39:35;;;;;;;16.00;10.90;;;;;;;;;;5054511;28;20471;-70
2021/12/19 13:42:11;;;;;;;19.47;11.57;;;;;;;;;;5054047;28;20446;-70
2021/12/19 13:44:37;;;;;;;14.77;10.37;;;;;;;;;;5054635;28;20378;-69
2021/12/19 13:47:15;;;;;;;17.03;12.00;;;;;;;;;;5054191;28;20421;-71
2021/12/19 13:49:41;;;;;;;20.30;12.47;;;;;;;;;;5054285;28;20405;-70
2021/12/19 13:52:08;;;;;;;18.80;12.27;;;;;;;;;;5054123;28;20899;-70
2021/12/19 13:54:37;;;;;;;20.30;12.50;;;;;;;;;;5053976;28;20436;-70
2021/12/19 13:57:15;;;;;;;19.83;12.13;;;;;;;;;;5053956;28;20437;-70
2021/12/19 13:59:41;;;;;;;19.47;11.33;;;;;;;;;;5054100;28;20393;-70
2021/12/19 14:02:10;;;;;;;18.97;11.83;;;;;;;;;;5052686;28;20460;-70
2021/12/19 14:04:36;;;;;;;23.00;13.93;;;;;;;;;;5052606;28;20417;-70
2021/12/19 14:07:05;;;;;;;20.73;13.57;;;;;;;;;;5053745;28;20775;-70
2021/12/19 14:09:38;;;;;;;22.97;13.70;;;;;;;;;;5053979;28;20481;-69
2021/12/19 14:12:11;;;;;;;22.40;13.47;;;;;;;;;;5053800;28;20397;-70
2021/12/19 14:14:37;;;;;;;19.90;13.27;;;;;;;;;;5053916;28;20410;-70
2021/12/19 14:17:03;;;;;;;21.03;13.60;;;;;;;;;;5052592;28;20446;-70
2021/12/19 14:19:31;;;;;;;21.30;13.40;;;;;;;;;;5053859;28;20413;-69
2021/12/19 14:22:09;;;;;;;22.83;13.60;;;;;;;;;;5053518;28;20925;-69
2021/12/19 14:24:38;;;;;;;19.93;12.30;;;;;;;;;;5053714;28;20398;-70
2021/12/19 14:27:27;;;;;;;23.90;13.53;;;;;;;;;;5053476;28;20453;-69
2021/12/19 14:29:57;;;;;;;24.07;13.87;;;;;;;;;;5053630;28;20797;-70
2021/12/19 14:32:26;;;;;;;21.00;13.50;;;;;;;;;;5052169;28;20409;-70
2021/12/19 14:34:57;;;;;;;26.20;14.37;;;;;;;;;;5053524;28;20402;-70
2021/12/19 14:37:43;;;;;;;23.93;13.97;;;;;;;;;;5053572;28;20513;-70
2021/12/19 14:40:12;;;;;;;23.87;13.67;;;;;;;;;;5053041;28;20386;-69
2021/12/19 14:42:38;;;;;;;29.13;15.23;;;;;;;;;;5053183;28;20460;-70
2021/12/19 14:45:09;;;;;;;25.30;14.50;;;;;;;;;;5053641;28;20402;-70
2021/12/19 14:47:40;;;;;;;25.67;13.43;;;;;;;;;;5051772;28;20437;-70
2021/12/19 14:50:10;;;;;;;30.60;15.00;;;;;;;;;;5053233;28;20406;-70
2021/12/19 14:52:36;;;;;;;24.30;13.80;;;;;;;;;;5053031;28;20409;-69
2021/12/19 14:55:13;;;;;;;29.30;16.23;;;;;;;;;;5053405;28;20413;-70
2021/12/19 14:57:39;;;;;;;23.67;14.10;;;;;;;;;;5052872;28;20582;-69
2021/12/19 15:00:06;;;;;;;26.37;16.13;;;;;;;;;;5053186;28;20746;-70
2021/12/19 15:02:32;;;;;;;28.20;16.20;;;;;;;;;;5053067;28;20790;-70
2021/12/19 15:04:58;;;;;;;29.83;18.90;;;;;;;;;;5053156;28;20413;-70
2021/12/19 15:07:26;;;;;;;27.07;16.80;;;;;;;;;;5053175;28;20874;-69
2021/12/19 15:09:52;;;;;;;31.63;18.10;;;;;;;;;;5053291;28;20484;-70
2021/12/19 15:12:18;;;;;;;30.20;19.07;;;;;;;;;;5053143;28;20794;-70
2021/12/19 15:14:44;;;;;;;51.67;30.37;;;;;;;;;;5050598;28;20513;-70
2021/12/19 15:17:10;;;;;;;33.93;17.47;;;;;;;;;;5051868;28;20476;-66
2021/12/19 15:19:36;;;;;;;37.33;21.50;;;;;;;;;;5052247;28;20487;-68
2021/12/19 15:22:02;;;;;;;36.57;22.97;;;;;;;;;;5052607;28;20462;-68
2021/12/19 15:24:28;;;;;;;27.83;18.87;;;;;;;;;;5052632;28;20840;-67
2021/12/19 15:26:54;;;;;;;29.23;17.13;;;;;;;;;;5050546;28;20934;-67
2021/12/19 15:29:20;;;;;;;30.30;15.77;;;;;;;;;;5051621;28;20478;-66